createdAt,value
2022-11-21T00:01:18.262Z,60.21
2022-11-21T00:03:45.907Z,60.22
2022-11-21T00:06:13.341Z,60.66
2022-11-21T00:08:40.869Z,60.75
2022-11-21T00:11:08.507Z,60.51
2022-11-21T00:13:35.906Z,60.64
2022-11-21T00:16:05.146Z,60.77
2022-11-21T00:18:34.547Z,60.71
2022-11-21T00:21:11.565Z,60.70
2022-11-21T00:23:39.145Z,61.05
2022-11-21T00:26:07.414Z,61.31
2022-11-21T00:28:35.035Z,61.06
2022-11-21T00:31:03.558Z,60.67
2022-11-21T00:33:31.666Z,60.81
2022-11-21T00:35:59.013Z,60.69
2022-11-21T00:38:27.492Z,60.38
2022-11-21T00:40:54.839Z,60.45
2022-11-21T00:43:22.225Z,60.74
2022-11-21T00:45:49.786Z,60.30
2022-11-21T00:48:17.118Z,60.30
2022-11-21T00:50:44.394Z,59.90
2022-11-21T00:53:11.983Z,60.01
2022-11-21T00:55:39.335Z,59.99
2022-11-21T00:58:06.692Z,60.53
2022-11-21T01:00:34.359Z,60.96
2022-11-21T01:03:01.675Z,61.69
2022-11-21T01:05:29.001Z,61.74
2022-11-21T01:07:56.613Z,61.18
2022-11-21T01:10:24.150Z,60.86
2022-11-21T01:12:51.430Z,60.91
2022-11-21T01:15:18.990Z,60.63
2022-11-21T01:17:46.358Z,60.62
2022-11-21T01:20:14.536Z,60.63
2022-11-21T01:22:42.140Z,60.63
2022-11-21T01:25:09.602Z,60.74
2022-11-21T01:27:36.876Z,60.71
2022-11-21T01:30:04.952Z,60.72
2022-11-21T01:32:32.334Z,60.34
2022-11-21T01:34:59.743Z,60.21
2022-11-21T01:37:27.415Z,60.21
2022-11-21T01:39:55.172Z,60.13
2022-11-21T01:42:22.561Z,60.34
2022-11-21T01:44:53.411Z,60.70
2022-11-21T01:47:22.726Z,60.40
2022-11-21T01:49:52.483Z,60.42
2022-11-21T01:52:25.432Z,60.19
2022-11-21T01:55:03.133Z,60.43
2022-11-21T01:57:57.133Z,60.36
2022-11-21T02:00:27.006Z,60.17
2022-11-21T02:02:58.308Z,60.04
2022-11-21T02:05:28.577Z,60.30
2022-11-21T02:07:58.951Z,60.35
2022-11-21T02:10:27.112Z,60.04
2022-11-21T02:12:56.911Z,60.01
2022-11-21T02:15:27.070Z,60.29
2022-11-21T02:17:54.801Z,60.43
2022-11-21T02:20:25.045Z,60.40
2022-11-21T02:23:11.093Z,60.33
2022-11-21T02:25:41.456Z,60.55
2022-11-21T02:28:15.260Z,60.61
2022-11-21T02:30:43.587Z,60.49
2022-11-21T02:33:11.519Z,60.98
2022-11-21T02:35:39.099Z,60.75
2022-11-21T02:38:10.116Z,60.47
2022-11-21T02:40:43.945Z,60.35
2022-11-21T02:43:21.926Z,60.25
2022-11-21T02:45:49.359Z,60.66
2022-11-21T02:48:16.912Z,60.48
2022-11-21T02:50:46.094Z,59.98
2022-11-21T02:53:15.734Z,59.93
2022-11-21T02:55:43.924Z,59.89
2022-11-21T02:58:11.843Z,59.71
2022-11-21T03:00:40.505Z,60.47
2022-11-21T03:03:08.691Z,60.25
2022-11-21T03:05:36.112Z,60.18
2022-11-21T03:08:03.773Z,60.04
2022-11-21T03:10:31.400Z,59.82
2022-11-21T03:13:01.806Z,60.32
2022-11-21T03:15:32.025Z,60.03
2022-11-21T03:18:03.462Z,60.58
2022-11-21T03:20:32.481Z,60.33
2022-11-21T03:23:00.105Z,60.85
2022-11-21T03:25:28.067Z,60.33
2022-11-21T03:27:55.550Z,60.59
2022-11-21T03:30:24.707Z,60.59
2022-11-21T03:32:55.366Z,60.38
2022-11-21T03:35:23.162Z,60.74
2022-11-21T03:37:50.583Z,60.17
2022-11-21T03:40:17.992Z,60.06
2022-11-21T03:42:45.537Z,59.95
2022-11-21T03:45:12.866Z,60.34
2022-11-21T03:47:40.192Z,60.67
2022-11-21T03:50:08.083Z,60.64
2022-11-21T03:52:35.379Z,60.67
2022-11-21T03:55:02.962Z,60.61
2022-11-21T03:57:30.579Z,60.37
2022-11-21T03:59:57.926Z,60.73
2022-11-21T04:02:25.210Z,61.18
2022-11-21T04:04:52.815Z,60.77
2022-11-21T04:07:20.251Z,60.65
2022-11-21T04:09:47.651Z,60.74
2022-11-21T04:12:15.260Z,60.58
2022-11-21T04:14:42.539Z,60.85
2022-11-21T04:17:10.051Z,60.25
2022-11-21T04:19:37.730Z,60.15
2022-11-21T04:22:05.289Z,60.21
2022-11-21T04:24:32.633Z,60.42
2022-11-21T04:27:00.176Z,60.18
2022-11-21T04:29:27.544Z,60.32
2022-11-21T04:31:54.886Z,60.26
2022-11-21T04:34:22.551Z,60.42
2022-11-21T04:36:49.922Z,60.35
2022-11-21T04:39:17.293Z,60.15
2022-11-21T04:41:44.899Z,60.33
2022-11-21T04:44:12.257Z,60.53
2022-11-21T04:46:39.585Z,60.67
2022-11-21T04:49:07.189Z,60.13
2022-11-21T04:51:34.544Z,60.22
2022-11-21T04:54:01.902Z,60.03
2022-11-21T04:56:29.542Z,59.87
2022-11-21T04:58:56.858Z,59.82
2022-11-21T05:01:24.226Z,60.24
2022-11-21T05:03:52.779Z,60.29
2022-11-21T05:06:20.141Z,60.34
2022-11-21T05:08:52.111Z,60.70
2022-11-21T05:11:39.982Z,60.91
2022-11-21T05:14:07.308Z,61.42
2022-11-21T05:16:35.203Z,61.72
2022-11-21T05:19:02.492Z,61.85
2022-11-21T05:21:30.093Z,61.56
2022-11-21T05:23:57.649Z,61.19
2022-11-21T05:26:24.969Z,61.18
2022-11-21T05:28:52.251Z,61.87
2022-11-21T05:31:19.874Z,61.99
2022-11-21T05:33:47.194Z,63.38
2022-11-21T05:36:14.464Z,63.19
2022-11-21T05:38:42.084Z,63.66
2022-11-21T05:41:09.849Z,63.82
2022-11-21T05:43:45.721Z,64.00
2022-11-21T05:46:14.701Z,63.65
2022-11-21T05:48:42.264Z,63.69
2022-11-21T05:51:09.874Z,63.79
2022-11-21T05:53:37.653Z,64.22
2022-11-21T05:56:10.782Z,64.52
2022-11-21T05:58:39.095Z,64.59
2022-11-21T06:01:07.193Z,64.36
2022-11-21T06:03:37.260Z,64.48
2022-11-21T06:06:16.966Z,64.44
2022-11-21T06:08:47.541Z,64.96
2022-11-21T06:11:16.588Z,65.04
2022-11-21T06:13:44.521Z,65.35
2022-11-21T06:16:14.717Z,64.87
2022-11-21T06:18:44.214Z,64.81
2022-11-21T06:21:15.825Z,65.08
2022-11-21T06:23:43.593Z,65.64
2022-11-21T06:26:16.162Z,65.22
2022-11-21T06:28:44.777Z,65.86
2022-11-21T06:31:16.930Z,64.84
2022-11-21T06:33:44.560Z,64.11
2022-11-21T06:36:16.888Z,64.71
2022-11-21T06:38:44.478Z,64.38
2022-11-21T06:41:19.493Z,64.83
2022-11-21T06:43:47.041Z,65.98
2022-11-21T06:46:15.182Z,67.37
2022-11-21T06:48:43.132Z,66.76
2022-11-21T06:51:17.317Z,65.77
2022-11-21T06:53:45.417Z,66.08
2022-11-21T06:56:12.745Z,66.11
2022-11-21T06:58:40.073Z,66.27
2022-11-21T07:01:09.506Z,66.42
2022-11-21T07:03:37.377Z,66.04
2022-11-21T07:06:05.053Z,66.08
2022-11-21T07:08:36.001Z,65.59
2022-11-21T07:13:53.160Z,68.52
2022-11-21T07:16:20.492Z,66.88
2022-11-21T07:18:47.847Z,66.50
2022-11-21T07:21:15.425Z,65.05
2022-11-21T07:23:42.760Z,63.99
2022-11-21T07:26:10.459Z,63.48
2022-11-21T07:28:38.326Z,62.72
2022-11-21T07:31:11.686Z,63.40
2022-11-21T07:33:43.093Z,64.93
2022-11-21T07:36:11.568Z,64.65
2022-11-21T07:38:38.977Z,63.99
2022-11-21T07:41:06.546Z,63.63
2022-11-21T07:43:33.818Z,63.93
2022-11-21T07:46:01.160Z,64.35
2022-11-21T07:48:28.735Z,64.33
2022-11-21T07:50:56.039Z,64.04
2022-11-21T07:53:24.201Z,63.84
2022-11-21T07:55:51.762Z,64.04
2022-11-21T07:58:19.058Z,63.89
2022-11-21T08:00:46.394Z,64.78
2022-11-21T08:03:14.006Z,68.46
2022-11-21T08:05:43.259Z,66.43
2022-11-21T08:08:14.078Z,65.18
2022-11-21T08:10:43.623Z,64.60
2022-11-21T08:13:11.737Z,65.32
2022-11-21T08:15:39.284Z,64.06
2022-11-21T08:18:10.817Z,64.09
2022-11-21T08:20:38.574Z,63.70
2022-11-21T08:23:06.564Z,64.37
2022-11-21T08:25:34.683Z,64.65
2022-11-21T08:28:02.921Z,65.09
2022-11-21T08:30:30.837Z,65.37
2022-11-21T08:32:59.207Z,65.48
2022-11-21T08:35:26.980Z,65.71
2022-11-21T08:37:58.398Z,65.16
2022-11-21T08:40:27.848Z,65.09
2022-11-21T08:43:06.895Z,65.38
2022-11-21T08:45:36.032Z,64.72
2022-11-21T08:48:03.632Z,64.20
2022-11-21T08:50:32.075Z,64.59
2022-11-21T08:53:01.472Z,64.94
2022-11-21T08:55:29.283Z,64.39
2022-11-21T08:57:56.645Z,64.28
2022-11-21T09:00:24.467Z,63.43
2022-11-21T09:02:51.830Z,63.54
2022-11-21T09:05:19.207Z,63.87
2022-11-21T09:07:47.557Z,65.37
2022-11-21T09:10:15.334Z,64.20
2022-11-21T09:12:43.276Z,63.73
2022-11-21T09:15:30.075Z,63.57
2022-11-21T09:18:04.405Z,63.83
2022-11-21T09:20:34.172Z,65.59
2022-11-21T09:23:10.148Z,65.31
2022-11-21T09:25:37.726Z,65.23
2022-11-21T09:28:07.007Z,65.54
2022-11-21T09:30:34.658Z,64.73
2022-11-21T09:33:06.489Z,64.91
2022-11-21T09:35:33.876Z,64.88
2022-11-21T09:38:01.225Z,64.71
2022-11-21T09:40:30.338Z,65.36
2022-11-21T09:43:06.668Z,66.00
2022-11-21T09:45:35.132Z,66.88
2022-11-21T09:48:11.865Z,66.57
2022-11-21T09:50:42.950Z,65.84
2022-11-21T09:53:15.083Z,65.88
2022-11-21T09:55:52.234Z,65.83
2022-11-21T09:58:25.307Z,65.20
2022-11-21T10:00:53.564Z,65.51
2022-11-21T10:03:29.301Z,65.38
2022-11-21T10:06:01.820Z,65.24
2022-11-21T10:08:42.848Z,65.91
2022-11-21T10:11:34.689Z,65.05
2022-11-21T10:14:09.836Z,65.94
2022-11-21T10:16:57.258Z,65.42
2022-11-21T10:19:38.272Z,64.96
2022-11-21T10:22:17.901Z,64.04
2022-11-21T10:25:17.557Z,63.28
2022-11-21T10:27:51.701Z,65.45
2022-11-21T10:30:21.010Z,63.66
2022-11-21T10:32:57.475Z,61.70
2022-11-21T10:35:34.222Z,61.31
2022-11-21T10:38:03.112Z,61.49
2022-11-21T10:40:49.290Z,61.63
2022-11-21T10:43:41.353Z,61.73
2022-11-21T10:46:09.598Z,60.99
2022-11-21T10:48:36.896Z,64.92
2022-11-21T10:51:13.073Z,63.62
2022-11-21T10:54:04.559Z,62.74
2022-11-21T10:56:35.070Z,61.92
2022-11-21T10:59:12.307Z,61.37
2022-11-21T11:01:39.715Z,60.27
2022-11-21T11:07:00.159Z,59.91
2022-11-21T11:09:30.978Z,60.15
2022-11-21T11:12:22.987Z,59.75
2022-11-21T11:14:56.270Z,59.79
2022-11-21T11:17:29.024Z,60.14
2022-11-21T11:20:01.326Z,59.99
2022-11-21T11:22:30.347Z,59.74
2022-11-21T11:25:00.728Z,59.70
2022-11-21T11:27:29.592Z,59.12
2022-11-21T11:29:56.907Z,59.42
2022-11-21T11:32:24.782Z,59.18
2022-11-21T11:35:01.298Z,59.23
2022-11-21T11:37:47.078Z,58.94
2022-11-21T11:40:41.637Z,57.90
2022-11-21T11:43:47.170Z,58.37
2022-11-21T11:46:45.422Z,58.32
2022-11-21T11:49:21.131Z,58.73
2022-11-21T11:51:54.729Z,58.75
2022-11-21T11:54:26.855Z,57.84
2022-11-21T11:56:54.279Z,57.86
2022-11-21T11:59:41.397Z,58.09
2022-11-21T12:02:44.273Z,57.99
2022-11-21T12:05:19.047Z,58.41
2022-11-21T12:08:39.662Z,58.34
2022-11-21T12:11:10.105Z,57.55
2022-11-21T12:13:37.659Z,57.59
2022-11-21T12:16:13.222Z,57.41
2022-11-21T12:18:58.994Z,57.74
2022-11-21T12:21:26.731Z,57.59
2022-11-21T12:23:55.885Z,57.27
2022-11-21T12:26:37.695Z,57.45
2022-11-21T12:29:37.122Z,57.17
2022-11-21T12:32:16.477Z,56.87
2022-11-21T12:35:01.741Z,56.64
2022-11-21T12:37:38.215Z,55.53
2022-11-21T12:40:43.053Z,55.68
2022-11-21T12:43:41.022Z,55.94
2022-11-21T12:46:23.866Z,56.59
2022-11-21T12:49:15.991Z,56.14
2022-11-21T12:52:17.474Z,55.72
2022-11-21T12:54:58.276Z,56.00
2022-11-21T12:57:50.510Z,55.72
2022-11-21T13:00:44.704Z,55.64
2022-11-21T13:03:28.157Z,56.07
2022-11-21T13:05:56.064Z,56.15
2022-11-21T13:08:27.394Z,56.62
2022-11-21T13:11:28.210Z,56.93
2022-11-21T13:14:25.255Z,57.00
2022-11-21T13:17:07.522Z,56.66
2022-11-21T13:19:37.430Z,55.87
2022-11-21T13:22:04.792Z,56.18
2022-11-21T13:24:44.226Z,56.18
2022-11-21T13:27:36.772Z,57.08
2022-11-21T13:30:08.836Z,57.16
2022-11-21T13:32:47.301Z,57.90
2022-11-21T13:35:14.953Z,57.35
2022-11-21T13:38:02.866Z,57.43
2022-11-21T13:40:30.188Z,57.83
2022-11-21T13:45:59.091Z,58.25
2022-11-21T13:49:02.262Z,58.04
2022-11-21T13:51:38.747Z,58.54
2022-11-21T13:54:38.753Z,58.82
2022-11-21T13:57:24.876Z,58.47
2022-11-21T14:00:22.532Z,58.66
2022-11-21T14:03:11.650Z,59.58
2022-11-21T14:06:03.633Z,59.66
2022-11-21T14:08:31.439Z,59.41
2022-11-21T14:10:58.918Z,59.58
2022-11-21T14:13:30.077Z,59.31
2022-11-21T14:16:41.266Z,59.54
2022-11-21T14:19:14.845Z,59.00
2022-11-21T14:21:45.965Z,59.47
2022-11-21T14:24:19.269Z,58.88
2022-11-21T14:26:49.352Z,59.42
2022-11-21T14:29:22.726Z,59.65
2022-11-21T14:31:50.948Z,59.85
2022-11-21T14:34:29.636Z,60.30
2022-11-21T14:37:03.079Z,60.54
2022-11-21T14:39:39.013Z,60.53
2022-11-21T14:42:13.747Z,60.77
2022-11-21T14:44:41.144Z,60.71
2022-11-21T14:47:25.081Z,60.65
2022-11-21T14:49:55.570Z,60.71
2022-11-21T14:52:33.545Z,60.70
2022-11-21T14:57:55.183Z,61.06
2022-11-21T15:00:57.394Z,62.39
2022-11-21T15:03:30.913Z,61.73
2022-11-21T15:06:04.617Z,61.76
2022-11-21T15:11:24.055Z,62.46
2022-11-21T15:14:14.903Z,62.76
2022-11-21T15:16:43.637Z,62.62
2022-11-21T15:19:11.332Z,62.26
2022-11-21T15:21:46.144Z,62.52
2022-11-21T15:24:33.042Z,62.80
2022-11-21T15:27:00.850Z,62.35
2022-11-21T15:29:32.325Z,62.21
2022-11-21T15:32:15.715Z,63.14
2022-11-21T15:34:44.257Z,63.43
2022-11-21T15:37:18.434Z,65.00
2022-11-21T15:39:48.281Z,64.42
2022-11-21T15:42:34.414Z,64.11
2022-11-21T15:45:21.191Z,63.67
2022-11-21T15:47:49.184Z,63.96
2022-11-21T15:50:17.262Z,64.06
2022-11-21T15:52:46.407Z,63.95
2022-11-21T15:55:25.948Z,63.12
2022-11-21T15:57:53.518Z,63.34
2022-11-21T16:00:20.860Z,63.25
2022-11-21T16:02:48.442Z,63.72
2022-11-21T16:05:16.005Z,63.09
2022-11-21T16:07:43.435Z,68.62
2022-11-21T16:10:18.308Z,65.20
2022-11-21T16:12:49.101Z,64.13
2022-11-21T16:15:16.739Z,61.08
2022-11-21T16:17:45.604Z,61.22
2022-11-21T16:20:13.272Z,61.42
2022-11-21T16:22:45.866Z,61.31
2022-11-21T16:25:15.794Z,61.46
2022-11-21T16:27:43.538Z,61.61
2022-11-21T16:30:11.694Z,61.62
2022-11-21T16:32:38.977Z,62.15
2022-11-21T16:35:07.365Z,61.75
2022-11-21T16:37:34.978Z,62.30
2022-11-21T16:40:02.497Z,62.25
2022-11-21T16:42:30.111Z,61.86
2022-11-21T16:44:57.471Z,61.92
2022-11-21T16:47:24.831Z,61.98
2022-11-21T16:49:52.458Z,61.63
2022-11-21T16:52:19.887Z,61.13
2022-11-21T16:54:47.370Z,60.84
2022-11-21T16:57:15.115Z,60.74
2022-11-21T16:59:42.518Z,60.85
2022-11-21T17:02:10.754Z,60.82
2022-11-21T17:04:38.354Z,60.93
2022-11-21T17:07:06.061Z,60.72
2022-11-21T17:09:33.572Z,60.77
2022-11-21T17:12:01.187Z,60.89
2022-11-21T17:14:28.892Z,61.31
2022-11-21T17:16:56.521Z,61.39
2022-11-21T17:19:24.084Z,61.36
2022-11-21T17:21:52.483Z,61.23
2022-11-21T17:24:19.839Z,61.35
2022-11-21T17:26:47.419Z,61.28
2022-11-21T17:29:14.872Z,61.68
2022-11-21T17:31:42.662Z,61.35
2022-11-21T17:34:10.341Z,61.34
2022-11-21T17:36:37.862Z,61.71
2022-11-21T17:39:05.165Z,61.90
2022-11-21T17:41:32.774Z,61.78
2022-11-21T17:44:01.118Z,62.03
2022-11-21T17:46:28.766Z,62.15
2022-11-21T17:48:58.967Z,62.25
2022-11-21T17:51:29.289Z,62.27
2022-11-21T17:53:56.925Z,62.30
2022-11-21T17:56:26.538Z,62.42
2022-11-21T17:58:54.173Z,62.93
2022-11-21T18:01:22.329Z,62.72
2022-11-21T18:04:14.682Z,62.79
2022-11-21T18:06:42.548Z,62.91
2022-11-21T18:09:11.254Z,62.69
2022-11-21T18:11:40.555Z,62.64
2022-11-21T18:14:10.304Z,62.41
2022-11-21T18:16:39.435Z,62.71
2022-11-21T18:19:09.199Z,62.82
2022-11-21T18:21:36.606Z,63.30
2022-11-21T18:24:04.276Z,63.11
2022-11-21T18:26:33.885Z,62.64
2022-11-21T18:29:28.673Z,62.75
2022-11-21T18:31:50.201Z,62.33
2022-11-21T18:34:17.582Z,62.30
2022-11-21T18:36:45.229Z,62.65
2022-11-21T18:39:15.281Z,63.47
2022-11-21T18:41:43.139Z,63.37
2022-11-21T18:44:11.382Z,62.94
2022-11-21T18:46:40.454Z,63.26
2022-11-21T18:49:08.586Z,63.26
2022-11-21T18:51:36.886Z,63.20
2022-11-21T18:54:08.372Z,63.30
2022-11-21T18:56:38.261Z,62.96
2022-11-21T18:59:06.461Z,62.40
2022-11-21T19:01:36.026Z,62.42
2022-11-21T19:04:03.613Z,62.50
2022-11-21T19:06:31.317Z,62.74
2022-11-21T19:08:58.900Z,63.05
2022-11-21T19:11:28.515Z,63.26
2022-11-21T19:13:57.172Z,63.40
2022-11-21T19:16:25.847Z,63.38
2022-11-21T19:21:43.832Z,63.29
2022-11-21T19:24:15.510Z,63.75
2022-11-21T19:26:42.904Z,63.62
2022-11-21T19:29:11.100Z,62.98
2022-11-21T19:31:44.526Z,63.03
2022-11-21T19:34:14.112Z,62.49
2022-11-21T19:36:42.375Z,63.24
2022-11-21T19:39:09.754Z,63.34
2022-11-21T19:41:37.644Z,63.09
2022-11-21T19:44:05.020Z,62.96
2022-11-21T19:46:34.383Z,62.94
2022-11-21T19:49:01.953Z,62.87
2022-11-21T19:51:35.015Z,63.37
2022-11-21T19:54:04.436Z,63.60
2022-11-21T19:56:32.097Z,63.67
2022-11-21T19:58:59.396Z,63.80
2022-11-21T20:01:29.056Z,63.68
2022-11-21T20:03:59.621Z,63.76
2022-11-21T20:06:29.285Z,63.84
2022-11-21T20:09:01.646Z,63.63
2022-11-21T20:11:30.166Z,63.52
2022-11-21T20:13:58.439Z,63.87
2022-11-21T20:16:31.074Z,63.74
2022-11-21T20:19:00.782Z,63.61
2022-11-21T20:21:28.875Z,63.66
2022-11-21T20:23:56.693Z,63.54
2022-11-21T20:26:25.181Z,63.54
2022-11-21T20:28:53.326Z,63.18
2022-11-21T20:31:22.882Z,62.87
2022-11-21T20:33:52.481Z,63.49
2022-11-21T20:36:21.780Z,63.37
2022-11-21T20:38:53.780Z,63.54
2022-11-21T20:41:23.065Z,63.57
2022-11-21T20:46:43.020Z,63.37
2022-11-21T20:49:10.811Z,63.49
2022-11-21T20:54:26.839Z,63.75
2022-11-21T20:56:54.324Z,63.55
2022-11-21T20:59:21.636Z,64.24
2022-11-21T21:01:49.258Z,64.25
2022-11-21T21:04:17.012Z,64.32
2022-11-21T21:06:44.317Z,63.89
2022-11-21T21:09:11.945Z,63.95
2022-11-21T21:11:54.651Z,64.03
2022-11-21T21:14:22.543Z,64.10
2022-11-21T21:16:50.343Z,64.13
2022-11-21T21:19:18.048Z,64.36
2022-11-21T21:21:45.660Z,64.23
2022-11-21T21:24:13.351Z,63.83
2022-11-21T21:26:43.791Z,63.77
2022-11-21T21:29:13.655Z,64.27
2022-11-21T21:31:46.810Z,63.25
2022-11-21T21:34:17.851Z,63.34
2022-11-21T21:36:45.286Z,63.69
2022-11-21T21:39:12.597Z,64.15
2022-11-21T21:41:44.203Z,64.01
2022-11-21T21:44:11.919Z,64.01
2022-11-21T21:46:39.545Z,63.32
2022-11-21T21:49:06.869Z,63.26
2022-11-21T21:51:35.935Z,63.24
2022-11-21T21:54:04.095Z,63.37
2022-11-21T21:56:31.487Z,63.16
2022-11-21T21:58:59.010Z,63.24
2022-11-21T22:01:31.069Z,63.09
2022-11-21T22:04:03.689Z,63.63
2022-11-21T22:06:33.368Z,63.95
2022-11-21T22:09:01.786Z,64.07
2022-11-21T22:11:31.396Z,64.06
2022-11-21T22:14:03.694Z,63.79
2022-11-21T22:16:31.860Z,63.70
2022-11-21T22:18:59.171Z,63.68
2022-11-21T22:21:34.436Z,63.55
2022-11-21T22:26:51.316Z,62.98
2022-11-21T22:29:18.942Z,63.71
2022-11-21T22:31:46.309Z,63.40
2022-11-21T22:34:14.347Z,63.41
2022-11-21T22:36:42.049Z,64.05
2022-11-21T22:39:09.605Z,63.28
2022-11-21T22:41:37.043Z,63.70
2022-11-21T22:44:04.822Z,63.91
2022-11-21T22:46:32.418Z,64.15
2022-11-21T22:48:59.759Z,64.35
2022-11-21T22:51:31.329Z,64.63
2022-11-21T22:53:58.698Z,64.01
2022-11-21T22:56:27.158Z,64.05
2022-11-21T22:58:54.887Z,63.78
2022-11-21T23:01:24.485Z,63.17
2022-11-21T23:03:52.518Z,62.95
2022-11-21T23:06:23.525Z,63.31
2022-11-21T23:08:52.325Z,63.94
2022-11-21T23:11:26.166Z,64.45
2022-11-21T23:13:55.420Z,64.39
2022-11-21T23:16:23.184Z,64.04
2022-11-21T23:18:54.482Z,64.80
2022-11-21T23:21:22.324Z,64.93
2022-11-21T23:23:50.060Z,63.72
2022-11-21T23:26:17.456Z,63.96
2022-11-21T23:28:44.964Z,64.13
2022-11-21T23:31:12.557Z,64.81
2022-11-21T23:33:39.968Z,64.27
2022-11-21T23:36:07.465Z,64.06
2022-11-21T23:38:35.099Z,64.02
2022-11-21T23:41:02.450Z,64.22
2022-11-21T23:43:29.730Z,64.70
2022-11-21T23:45:57.322Z,64.39
2022-11-21T23:48:24.737Z,64.47
2022-11-21T23:50:52.364Z,64.72
2022-11-21T23:53:20.659Z,64.72
2022-11-21T23:55:48.452Z,64.08
2022-11-21T23:58:16.368Z,64.47
